Glasgow, Montana
Current Conditions -  °F | °C
As of 3:53 AM on Wednesday 26 Nov 2014 (Local Time) from KGGW Reporting Station
Overcast Overcast  
Wind Chill: -6°   Ceiling: 1600
Heat Index: -6°   Visibility: 10mi
Dew Point: -9°   Wind: 3mph
Humidity: 81%   Direction: 130°SE
Pressure: 30.22"   Gusts: NA
Location:  48.2°N, 106.64°W
Report Text: KGGW 261053Z AUTO 13003KT 10SM OVC016 M06/M09 A3022 RMK AO2 SLP269 T10611089
Loading
Personal Weather Stations






























Interactive Weather Map New forecast layout! Learn more

10-Day Weather Forecast

Advertisements
Track Severe Weather on mobile